createdAt,value
2023-05-24T00:00:30.989Z,9.70
2023-05-24T00:03:19.230Z,8.70
2023-05-24T00:05:47.244Z,6.00
2023-05-24T00:08:18.256Z,7.50
2023-05-24T00:10:46.496Z,8.90
2023-05-24T00:13:15.581Z,10.50
2023-05-24T00:15:43.619Z,7.40
2023-05-24T00:18:11.600Z,6.30
2023-05-24T00:20:39.872Z,8.40
2023-05-24T00:23:08.543Z,8.60
2023-05-24T00:25:36.599Z,6.30
2023-05-24T00:28:04.859Z,5.90
2023-05-24T00:30:33.031Z,7.60
2023-05-24T00:33:01.400Z,7.40
2023-05-24T00:35:29.299Z,7.60
2023-05-24T00:37:57.329Z,8.00
2023-05-24T00:40:25.365Z,6.00
2023-05-24T00:42:53.422Z,7.40
2023-05-24T00:45:21.574Z,8.20
2023-05-24T00:47:49.758Z,7.40
2023-05-24T00:50:18.254Z,8.70
2023-05-24T00:52:49.596Z,6.60
2023-05-24T00:55:17.711Z,8.60
2023-05-24T00:57:45.980Z,7.80
2023-05-24T01:00:14.142Z,10.30
2023-05-24T01:02:42.354Z,5.30
2023-05-24T01:05:13.672Z,8.80
2023-05-24T01:07:47.821Z,9.00
2023-05-24T01:10:37.594Z,7.20
2023-05-24T01:13:10.944Z,7.90
2023-05-24T01:15:52.398Z,8.20
2023-05-24T01:18:33.430Z,7.80
2023-05-24T01:21:20.344Z,8.20
2023-05-24T01:24:22.779Z,6.10
2023-05-24T01:27:14.657Z,8.60
2023-05-24T01:29:43.030Z,10.50
2023-05-24T01:32:10.912Z,8.20
2023-05-24T01:34:38.821Z,7.20
2023-05-24T01:37:06.696Z,9.00
2023-05-24T01:39:35.224Z,6.90
2023-05-24T01:42:17.319Z,5.60
2023-05-24T01:44:49.197Z,7.00
2023-05-24T01:47:32.713Z,6.40
2023-05-24T01:50:18.650Z,8.90
2023-05-24T01:52:47.956Z,5.30
2023-05-24T01:55:17.794Z,10.70
2023-05-24T01:57:48.756Z,7.70
2023-05-24T02:00:19.539Z,7.90
2023-05-24T02:02:47.876Z,6.00
2023-05-24T02:05:16.301Z,9.80
2023-05-24T02:07:44.186Z,5.70
2023-05-24T02:10:12.080Z,6.90
2023-05-24T02:12:40.041Z,7.30
2023-05-24T02:15:08.563Z,7.30
2023-05-24T02:17:36.523Z,6.50
2023-05-24T02:20:05.059Z,6.70
2023-05-24T02:22:32.936Z,7.40
2023-05-24T02:25:01.077Z,7.70
2023-05-24T02:27:28.888Z,7.40
2023-05-24T02:29:57.523Z,7.40
2023-05-24T02:32:25.409Z,8.50
2023-05-24T02:34:53.290Z,7.10
2023-05-24T02:37:21.199Z,6.80
2023-05-24T02:39:48.980Z,9.40
2023-05-24T02:42:17.002Z,7.20
2023-05-24T02:44:48.139Z,7.70
2023-05-24T02:47:16.058Z,8.00
2023-05-24T02:49:43.974Z,5.90
2023-05-24T02:52:11.902Z,6.90
2023-05-24T02:54:39.816Z,12.10
2023-05-24T02:57:07.674Z,6.80
2023-05-24T02:59:36.490Z,8.60
2023-05-24T03:02:04.652Z,6.90
2023-05-24T03:04:32.562Z,6.60
2023-05-24T03:07:01.137Z,6.30
2023-05-24T03:09:29.343Z,6.80
2023-05-24T03:11:57.200Z,7.60
2023-05-24T03:14:25.133Z,5.90
2023-05-24T03:16:53.026Z,7.70
2023-05-24T03:19:21.224Z,7.90
2023-05-24T03:21:49.175Z,6.90
2023-05-24T03:24:17.048Z,6.70
2023-05-24T03:26:45.337Z,7.30
2023-05-24T03:29:13.268Z,8.90
2023-05-24T03:31:41.286Z,8.90
2023-05-24T03:34:09.634Z,6.60
2023-05-24T03:36:37.486Z,7.30
2023-05-24T03:39:06.289Z,8.60
2023-05-24T03:41:34.234Z,6.80
2023-05-24T03:44:02.103Z,6.70
2023-05-24T03:46:30.091Z,8.10
2023-05-24T03:48:58.038Z,6.60
2023-05-24T03:51:29.796Z,7.60
2023-05-24T03:53:57.806Z,6.30
2023-05-24T03:56:27.091Z,5.80
2023-05-24T03:58:55.094Z,7.30
2023-05-24T04:01:33.204Z,8.80
2023-05-24T04:04:02.119Z,7.20
2023-05-24T04:06:30.552Z,6.80
2023-05-24T04:09:00.952Z,7.00
2023-05-24T04:11:29.178Z,6.10
2023-05-24T04:13:58.056Z,7.90
2023-05-24T04:16:26.591Z,6.10
2023-05-24T04:18:58.262Z,6.20
2023-05-24T04:21:26.261Z,9.50
2023-05-24T04:23:54.213Z,8.90
2023-05-24T04:26:22.722Z,9.80
2023-05-24T04:28:50.497Z,7.50
2023-05-24T04:31:18.551Z,13.10
2023-05-24T04:33:47.898Z,7.60
2023-05-24T04:36:17.705Z,9.50
2023-05-24T04:38:46.354Z,6.30
2023-05-24T04:41:14.650Z,4.80
2023-05-24T04:43:42.613Z,9.60
2023-05-24T04:46:10.859Z,8.50
2023-05-24T04:48:38.856Z,9.00
2023-05-24T04:51:06.692Z,5.80
2023-05-24T04:53:34.622Z,6.90
2023-05-24T04:56:02.558Z,7.50
2023-05-24T04:58:30.818Z,11.70
2023-05-24T05:00:58.766Z,6.30
2023-05-24T05:03:26.789Z,9.60
2023-05-24T05:05:54.712Z,8.00
2023-05-24T05:08:22.534Z,8.90
2023-05-24T05:10:50.618Z,10.60
2023-05-24T05:13:18.531Z,8.50
2023-05-24T05:15:46.712Z,9.80
2023-05-24T05:18:14.683Z,7.70
2023-05-24T05:20:42.691Z,10.30
2023-05-24T05:23:11.043Z,11.30
2023-05-24T05:25:38.885Z,9.20
2023-05-24T05:28:06.878Z,12.20
2023-05-24T05:30:34.864Z,7.70
2023-05-24T05:33:06.067Z,9.40
2023-05-24T05:35:34.227Z,10.10
2023-05-24T05:38:02.168Z,8.30
2023-05-24T05:40:30.104Z,7.10
2023-05-24T05:42:57.964Z,10.40
2023-05-24T05:45:26.289Z,9.20
2023-05-24T05:47:54.263Z,10.90
2023-05-24T05:50:22.124Z,8.90
2023-05-24T05:52:49.992Z,11.40
2023-05-24T05:55:18.014Z,10.20
2023-05-24T05:57:46.028Z,9.00
2023-05-24T06:00:14.406Z,12.00
2023-05-24T06:02:42.542Z,8.00
2023-05-24T06:05:10.756Z,7.90
2023-05-24T06:07:38.794Z,11.50
2023-05-24T06:10:07.353Z,8.50
2023-05-24T06:12:35.607Z,7.90
2023-05-24T06:15:06.558Z,8.30
2023-05-24T06:17:35.001Z,11.00
2023-05-24T06:20:12.087Z,8.90
2023-05-24T06:22:39.990Z,9.60
2023-05-24T06:25:08.449Z,7.80
2023-05-24T06:27:36.318Z,7.60
2023-05-24T06:30:05.091Z,10.30
2023-05-24T06:32:33.240Z,8.50
2023-05-24T06:35:01.460Z,11.90
2023-05-24T06:37:31.359Z,8.50
2023-05-24T06:39:59.330Z,7.90
2023-05-24T06:42:27.219Z,7.90
2023-05-24T06:44:55.045Z,9.00
2023-05-24T06:47:23.004Z,7.40
2023-05-24T06:49:51.060Z,7.40
2023-05-24T06:52:19.287Z,6.80
2023-05-24T06:54:47.088Z,7.80
2023-05-24T06:57:14.964Z,8.10
2023-05-24T06:59:42.809Z,5.70
2023-05-24T07:02:10.813Z,9.40
2023-05-24T07:04:41.308Z,7.50
2023-05-24T07:07:12.866Z,11.90
2023-05-24T07:09:42.352Z,8.20
2023-05-24T07:12:10.453Z,11.40
2023-05-24T07:14:38.336Z,10.50
2023-05-24T07:17:06.397Z,7.40
2023-05-24T07:19:36.188Z,11.00
2023-05-24T07:22:04.140Z,10.70
2023-05-24T07:24:32.000Z,11.10
2023-05-24T07:26:59.915Z,14.00
2023-05-24T07:29:27.932Z,15.80
2023-05-24T07:31:58.887Z,10.80
2023-05-24T07:34:30.120Z,12.90
2023-05-24T07:37:01.002Z,12.60
2023-05-24T07:39:28.947Z,9.90
2023-05-24T07:41:57.270Z,9.70
2023-05-24T07:44:25.283Z,20.10
2023-05-24T07:46:54.996Z,13.70
2023-05-24T07:49:23.805Z,14.70
2023-05-24T07:51:52.010Z,9.80
2023-05-24T07:54:20.177Z,13.40
2023-05-24T07:56:48.409Z,10.20
2023-05-24T07:59:16.556Z,9.30
2023-05-24T08:01:44.659Z,10.30
2023-05-24T08:04:12.566Z,13.50
2023-05-24T08:06:40.482Z,11.60
2023-05-24T08:09:09.486Z,11.30
2023-05-24T08:11:37.464Z,12.90
2023-05-24T08:14:05.264Z,9.90
2023-05-24T08:16:33.139Z,15.10
2023-05-24T08:19:01.404Z,9.60
2023-05-24T08:21:29.364Z,9.70
2023-05-24T08:23:57.473Z,11.30
2023-05-24T08:26:26.171Z,10.60
2023-05-24T08:28:54.961Z,8.00
2023-05-24T08:31:22.897Z,7.60
2023-05-24T08:33:51.416Z,9.40
2023-05-24T08:36:19.433Z,9.30
2023-05-24T08:38:47.418Z,9.00
2023-05-24T08:41:15.301Z,8.30
2023-05-24T08:43:46.709Z,9.30
2023-05-24T08:46:17.373Z,8.80
2023-05-24T08:48:47.320Z,12.70
2023-05-24T08:51:16.749Z,9.30
2023-05-24T08:53:48.836Z,7.70
2023-05-24T08:56:18.557Z,7.10
2023-05-24T08:58:47.287Z,7.70
2023-05-24T09:01:17.248Z,9.30
2023-05-24T09:03:48.901Z,8.30
2023-05-24T09:06:19.375Z,11.30
2023-05-24T09:08:50.180Z,10.60
2023-05-24T09:11:19.127Z,9.90
2023-05-24T09:13:48.158Z,10.10
2023-05-24T09:16:16.435Z,12.40
2023-05-24T09:18:44.323Z,12.10
2023-05-24T09:21:12.822Z,10.60
2023-05-24T09:23:41.786Z,11.40
2023-05-24T09:26:11.210Z,11.30
2023-05-24T09:28:39.150Z,10.10
2023-05-24T09:31:08.262Z,9.10
2023-05-24T09:33:36.423Z,8.50
2023-05-24T09:36:06.281Z,9.40
2023-05-24T09:38:36.360Z,11.80
2023-05-24T09:41:06.819Z,7.80
2023-05-24T09:43:46.748Z,9.90
2023-05-24T09:46:21.639Z,10.90
2023-05-24T09:49:00.054Z,12.20
2023-05-24T09:51:28.221Z,10.50
2023-05-24T09:54:06.126Z,12.40
2023-05-24T09:56:34.805Z,7.80
2023-05-24T09:59:09.965Z,8.90
2023-05-24T10:01:38.131Z,7.80
2023-05-24T10:04:09.958Z,11.00
2023-05-24T10:06:56.652Z,7.70
2023-05-24T10:09:27.797Z,7.60
2023-05-24T10:11:56.596Z,9.10
2023-05-24T10:14:26.114Z,7.00
2023-05-24T10:16:54.405Z,11.20
2023-05-24T10:19:23.348Z,10.50
2023-05-24T10:21:53.658Z,10.00
2023-05-24T10:24:27.468Z,9.50
2023-05-24T10:26:57.442Z,12.10
2023-05-24T10:29:47.111Z,11.60
2023-05-24T10:32:18.866Z,10.50
2023-05-24T10:34:47.725Z,11.30
2023-05-24T10:37:18.220Z,9.60
2023-05-24T10:39:46.236Z,8.90
2023-05-24T10:42:14.288Z,10.20
2023-05-24T10:44:42.327Z,8.90
2023-05-24T10:47:12.410Z,8.90
2023-05-24T10:49:59.240Z,9.00
2023-05-24T10:52:37.083Z,8.20
2023-05-24T10:55:10.300Z,7.10
2023-05-24T10:57:40.359Z,9.60
2023-05-24T11:00:33.900Z,8.90
2023-05-24T11:03:09.151Z,8.10
2023-05-24T11:05:47.027Z,8.20
2023-05-24T11:08:25.900Z,8.50
2023-05-24T11:11:23.917Z,7.10
2023-05-24T11:14:00.128Z,11.20
2023-05-24T11:16:37.843Z,10.60
2023-05-24T11:19:14.503Z,14.60
2023-05-24T11:21:44.861Z,10.10
2023-05-24T11:24:13.572Z,12.40
2023-05-24T11:26:41.906Z,15.70
2023-05-24T11:29:09.866Z,14.20
2023-05-24T11:31:43.142Z,12.10
2023-05-24T11:34:12.598Z,15.20
2023-05-24T11:36:41.238Z,13.70
2023-05-24T11:39:09.722Z,12.70
2023-05-24T11:41:38.808Z,12.20
2023-05-24T11:44:09.095Z,15.20
2023-05-24T11:46:39.322Z,16.60
2023-05-24T11:49:12.030Z,14.80
2023-05-24T11:51:40.364Z,12.30
2023-05-24T11:54:08.233Z,12.80
2023-05-24T11:56:37.206Z,13.80
2023-05-24T11:59:16.753Z,14.80
2023-05-24T12:01:44.895Z,14.90
2023-05-24T12:04:13.046Z,15.50
2023-05-24T12:06:43.441Z,20.70
2023-05-24T12:09:16.955Z,15.60
2023-05-24T12:11:49.902Z,13.70
2023-05-24T12:14:28.574Z,13.50
2023-05-24T12:16:57.406Z,16.90
2023-05-24T12:19:33.550Z,17.10
2023-05-24T12:22:06.600Z,16.10
2023-05-24T12:24:35.516Z,16.60
2023-05-24T12:27:08.922Z,17.20
2023-05-24T12:29:40.782Z,16.80
2023-05-24T12:32:13.602Z,15.70
2023-05-24T12:34:43.717Z,19.60
2023-05-24T12:37:13.194Z,16.10
2023-05-24T12:39:43.088Z,20.80
2023-05-24T12:42:13.714Z,19.40
2023-05-24T12:44:44.976Z,17.00
2023-05-24T12:47:13.179Z,18.70
2023-05-24T12:49:41.275Z,19.90
2023-05-24T12:52:09.439Z,21.80
2023-05-24T12:54:37.423Z,19.60
2023-05-24T12:57:05.530Z,23.10
2023-05-24T12:59:34.024Z,23.40
2023-05-24T13:02:02.532Z,22.40
2023-05-24T13:04:33.651Z,22.70
2023-05-24T13:07:03.072Z,23.50
2023-05-24T13:09:31.088Z,30.10
2023-05-24T13:11:59.054Z,26.30
2023-05-24T13:14:28.075Z,24.90
2023-05-24T13:16:56.182Z,28.00
2023-05-24T13:19:24.233Z,36.90
2023-05-24T13:21:52.601Z,29.10
2023-05-24T13:24:20.600Z,31.00
2023-05-24T13:26:49.330Z,29.50
2023-05-24T13:29:34.272Z,29.10
2023-05-24T13:32:05.307Z,38.20
2023-05-24T13:34:33.346Z,36.10
2023-05-24T13:37:01.719Z,35.00
2023-05-24T13:39:29.723Z,38.80
2023-05-24T13:41:57.795Z,34.80
2023-05-24T13:44:25.722Z,37.10
2023-05-24T13:46:56.677Z,40.80
2023-05-24T13:49:24.755Z,39.90
2023-05-24T13:51:54.878Z,37.20
2023-05-24T13:54:24.805Z,42.60
2023-05-24T13:56:52.730Z,45.10
2023-05-24T13:59:20.593Z,46.10
2023-05-24T14:01:48.575Z,45.30
2023-05-24T14:04:17.045Z,54.90
2023-05-24T14:06:45.325Z,53.60
2023-05-24T14:09:13.394Z,56.90
2023-05-24T14:11:41.500Z,55.70
2023-05-24T14:16:40.382Z,55.80
2023-05-24T14:19:08.400Z,61.10
2023-05-24T14:21:37.377Z,54.80
2023-05-24T14:24:05.336Z,54.10
2023-05-24T14:26:33.237Z,57.70
2023-05-24T14:29:02.188Z,61.40
2023-05-24T14:31:30.080Z,62.60
2023-05-24T14:33:58.146Z,66.40
2023-05-24T14:36:26.029Z,67.20
2023-05-24T14:38:54.074Z,71.50
2023-05-24T14:41:22.703Z,68.40
2023-05-24T14:43:51.199Z,64.10
2023-05-24T14:46:19.240Z,76.60
2023-05-24T14:48:47.476Z,65.30
2023-05-24T14:51:15.702Z,71.00
2023-05-24T14:53:43.636Z,76.70
2023-05-24T14:56:14.162Z,74.20
2023-05-24T14:58:42.338Z,72.00
2023-05-24T15:01:10.449Z,77.10
2023-05-24T15:03:38.516Z,68.00
2023-05-24T15:06:06.812Z,71.20
2023-05-24T15:08:35.651Z,69.90
2023-05-24T15:11:03.758Z,73.20
2023-05-24T15:13:31.985Z,69.20
2023-05-24T15:16:02.750Z,69.30
2023-05-24T15:18:31.829Z,72.80
2023-05-24T15:20:59.986Z,68.00
2023-05-24T15:23:28.511Z,69.20
2023-05-24T15:25:56.482Z,69.90
2023-05-24T15:28:26.369Z,73.10
2023-05-24T15:30:55.031Z,70.10
2023-05-24T15:33:23.175Z,68.30
2023-05-24T15:35:51.405Z,72.70
2023-05-24T15:38:19.381Z,78.80
2023-05-24T15:40:47.415Z,72.10
2023-05-24T15:43:18.989Z,72.20
2023-05-24T15:45:47.201Z,71.70
2023-05-24T15:48:15.224Z,69.20
2023-05-24T15:51:09.200Z,63.60
2023-05-24T15:53:31.039Z,75.40
2023-05-24T15:55:59.932Z,72.30
2023-05-24T15:58:27.830Z,61.10
2023-05-24T16:00:55.775Z,73.90
2023-05-24T16:03:23.846Z,67.60
2023-05-24T16:05:52.030Z,78.80
2023-05-24T16:08:23.288Z,64.60
2023-05-24T16:10:51.561Z,64.90
2023-05-24T16:13:21.482Z,70.50
2023-05-24T16:15:52.201Z,71.00
2023-05-24T16:18:22.991Z,68.30
2023-05-24T16:20:51.822Z,68.10
2023-05-24T16:23:23.174Z,65.10
2023-05-24T16:25:51.661Z,70.50
2023-05-24T16:28:24.759Z,78.00
2023-05-24T16:30:56.269Z,69.50
2023-05-24T16:33:25.223Z,66.20
2023-05-24T16:35:56.539Z,66.90
2023-05-24T16:38:25.624Z,74.60
2023-05-24T16:40:54.474Z,67.90
2023-05-24T16:43:22.728Z,71.00
2023-05-24T16:45:51.506Z,68.60
2023-05-24T16:48:21.786Z,69.00
2023-05-24T16:50:51.740Z,72.60
2023-05-24T16:53:22.855Z,69.40
2023-05-24T16:55:53.881Z,76.90
2023-05-24T16:58:23.709Z,72.30
2023-05-24T17:00:54.335Z,71.80
2023-05-24T17:03:28.954Z,72.30
2023-05-24T17:06:03.535Z,74.60
2023-05-24T17:08:36.428Z,74.00
2023-05-24T17:11:05.572Z,70.90
2023-05-24T17:13:34.201Z,69.30
2023-05-24T17:16:03.892Z,74.70
2023-05-24T17:18:31.941Z,65.50
2023-05-24T17:21:01.790Z,67.80
2023-05-24T17:23:31.905Z,73.80
2023-05-24T17:26:02.481Z,69.20
2023-05-24T17:28:30.745Z,75.60
2023-05-24T17:31:00.474Z,76.40
2023-05-24T17:33:30.376Z,78.30
2023-05-24T17:35:58.281Z,80.90
2023-05-24T17:38:26.392Z,74.50
2023-05-24T17:40:59.305Z,77.50
2023-05-24T17:43:32.877Z,71.60
2023-05-24T17:46:08.558Z,82.40
2023-05-24T17:48:37.464Z,67.20
2023-05-24T17:51:07.733Z,75.30
2023-05-24T17:53:37.540Z,74.60
2023-05-24T17:56:06.734Z,75.10
2023-05-24T17:58:37.782Z,68.70
2023-05-24T18:01:07.421Z,72.40
2023-05-24T18:03:37.135Z,68.90
2023-05-24T18:06:07.042Z,68.90
2023-05-24T18:08:38.144Z,77.80
2023-05-24T18:11:09.616Z,84.30
2023-05-24T18:13:39.190Z,91.10
2023-05-24T18:16:08.115Z,89.10
2023-05-24T18:18:37.719Z,90.50
2023-05-24T18:21:06.293Z,88.20
2023-05-24T18:23:39.579Z,85.70
2023-05-24T18:26:09.057Z,101.20
2023-05-24T18:28:38.308Z,78.40
2023-05-24T18:31:14.763Z,74.90
2023-05-24T18:33:43.062Z,71.90
2023-05-24T18:36:12.688Z,82.50
2023-05-24T18:38:40.807Z,78.30
2023-05-24T18:41:10.175Z,70.80
2023-05-24T18:43:38.437Z,78.80
2023-05-24T18:46:06.501Z,67.80
2023-05-24T18:48:34.351Z,63.50
2023-05-24T18:51:02.426Z,70.90
2023-05-24T18:53:30.318Z,66.40
2023-05-24T18:55:58.265Z,72.30
2023-05-24T18:58:26.167Z,74.50
2023-05-24T19:00:54.098Z,73.80
2023-05-24T19:03:22.651Z,71.10
2023-05-24T19:05:53.105Z,68.70
2023-05-24T19:08:21.026Z,75.40
2023-05-24T19:10:49.086Z,68.20
2023-05-24T19:13:17.057Z,66.30
2023-05-24T19:15:45.252Z,72.00
2023-05-24T19:18:13.504Z,71.70
2023-05-24T19:20:41.935Z,70.60
2023-05-24T19:23:09.836Z,70.70
2023-05-24T19:25:42.038Z,73.20
2023-05-24T19:28:11.519Z,66.10
2023-05-24T19:30:39.505Z,74.90
2023-05-24T19:33:07.855Z,78.00
2023-05-24T19:35:36.949Z,70.30
2023-05-24T19:38:04.870Z,73.50
2023-05-24T19:40:32.825Z,77.20
2023-05-24T19:43:00.898Z,64.30
2023-05-24T19:45:28.853Z,90.10
2023-05-24T19:47:56.910Z,93.40
2023-05-24T19:50:25.854Z,85.40
2023-05-24T19:52:53.740Z,82.00
2023-05-24T19:55:21.804Z,81.00
2023-05-24T19:57:49.789Z,85.40
2023-05-24T20:00:18.081Z,97.70
2023-05-24T20:02:46.014Z,100.10
2023-05-24T20:05:14.027Z,89.40
2023-05-24T20:07:41.964Z,90.60
2023-05-24T20:10:10.562Z,91.90
2023-05-24T20:12:38.499Z,90.40
2023-05-24T20:15:11.398Z,97.70
2023-05-24T20:17:39.267Z,88.60
2023-05-24T20:20:08.352Z,109.70
2023-05-24T20:22:36.308Z,101.90
2023-05-24T20:25:04.651Z,93.50
2023-05-24T20:27:33.021Z,98.50
2023-05-24T20:30:01.238Z,96.60
2023-05-24T20:32:29.155Z,86.90
2023-05-24T20:34:57.098Z,87.00
2023-05-24T20:37:24.975Z,99.50
2023-05-24T20:39:53.005Z,93.50
2023-05-24T20:42:20.893Z,104.10
2023-05-24T20:44:48.925Z,96.90
2023-05-24T20:47:19.215Z,95.00
2023-05-24T20:49:47.173Z,99.30
2023-05-24T20:52:16.444Z,92.90
2023-05-24T20:54:44.560Z,97.60
2023-05-24T20:57:12.598Z,94.50
2023-05-24T20:59:40.451Z,86.30
2023-05-24T21:02:08.317Z,87.90
2023-05-24T21:04:36.218Z,91.60
2023-05-24T21:07:04.338Z,87.50
2023-05-24T21:09:32.164Z,92.30
2023-05-24T21:12:00.173Z,94.40
2023-05-24T21:14:28.082Z,99.30
2023-05-24T21:16:56.002Z,96.40
2023-05-24T21:19:23.917Z,94.00
2023-05-24T21:21:52.090Z,84.80
2023-05-24T21:24:19.989Z,86.80
2023-05-24T21:26:47.857Z,88.30
2023-05-24T21:29:15.879Z,82.50
2023-05-24T21:31:43.937Z,83.30
2023-05-24T21:34:11.986Z,98.10
2023-05-24T21:36:39.965Z,100.60
2023-05-24T21:39:08.220Z,89.20
2023-05-24T21:41:37.719Z,85.80
2023-05-24T21:44:07.371Z,90.50
2023-05-24T21:46:36.332Z,95.70
2023-05-24T21:49:04.272Z,90.90
2023-05-24T21:51:32.171Z,75.70
2023-05-24T21:54:00.545Z,79.70
2023-05-24T21:56:28.608Z,85.00
2023-05-24T21:58:56.573Z,76.30
2023-05-24T22:01:24.471Z,80.60
2023-05-24T22:03:52.455Z,78.20
2023-05-24T22:06:20.566Z,82.70
2023-05-24T22:08:48.503Z,79.00
2023-05-24T22:11:16.505Z,147.80
2023-05-24T22:13:44.372Z,81.80
2023-05-24T22:16:12.332Z,80.00
2023-05-24T22:18:40.262Z,83.20
2023-05-24T22:21:08.650Z,85.10
2023-05-24T22:23:37.168Z,86.50
2023-05-24T22:26:05.181Z,83.60
2023-05-24T22:28:52.724Z,79.40
2023-05-24T22:31:21.638Z,75.90
2023-05-24T22:33:49.934Z,75.40
2023-05-24T22:36:19.011Z,72.50
2023-05-24T22:38:47.000Z,75.30
2023-05-24T22:41:14.851Z,79.30
2023-05-24T22:43:42.680Z,66.30
2023-05-24T22:46:10.841Z,70.70
2023-05-24T22:48:40.711Z,66.20
2023-05-24T22:51:09.383Z,74.40
2023-05-24T22:53:39.287Z,64.40
2023-05-24T22:56:10.463Z,71.90
2023-05-24T22:58:38.450Z,64.70
2023-05-24T23:01:06.798Z,64.20
2023-05-24T23:03:36.168Z,63.80
2023-05-24T23:06:04.646Z,66.20
2023-05-24T23:08:33.848Z,69.30
2023-05-24T23:11:01.896Z,69.80
2023-05-24T23:13:33.310Z,64.40
2023-05-24T23:16:01.340Z,65.90
2023-05-24T23:18:29.316Z,60.40
2023-05-24T23:20:57.150Z,66.10
2023-05-24T23:23:25.812Z,71.20
2023-05-24T23:25:53.705Z,67.70
2023-05-24T23:28:21.681Z,63.80
2023-05-24T23:30:49.645Z,66.70
2023-05-24T23:33:17.677Z,63.00
2023-05-24T23:35:45.912Z,69.50
2023-05-24T23:38:15.039Z,61.20
2023-05-24T23:40:43.301Z,63.30
2023-05-24T23:43:11.325Z,74.60
2023-05-24T23:45:39.141Z,60.60
2023-05-24T23:48:07.209Z,58.70
2023-05-24T23:50:50.213Z,63.00
2023-05-24T23:53:21.347Z,59.20
2023-05-24T23:55:49.180Z,62.60
2023-05-24T23:58:17.226Z,58.90
